Flight Track Log - Related Links

Times and Time Zones

All times are in EDT time to prevent confusion due to time zone crossing. See the N41GJ flight status page for this flight to view local times or setup timezone preferences in your user account.

Time Position Orientation Groundspeed Altitude Reporting Facility
EDT Latitude Longitude Course Direction KTS MPH feet Rate Location/Type
Fri 06:27:40 PM 39.8667 -75.2667 229° Southwest 190 219 500  Level Philadelphia TRACON
Fri 06:28:46 PM 39.8500 -75.3500 255° West 238 274 4,100 3,333 Climbing Philadelphia TRACON
Fri 06:29:46 PM 39.8500 -75.4333 270° West 248 285 7,500 2,562 Climbing Philadelphia TRACON
Fri 06:31:51 PM 39.8383 -75.6317 266° West 281 323 12,000 1,452 Climbing New York Center
Fri 06:32:52 PM 39.8375 -75.7508 270° West 296 341 12,000 1,140 Level New York Center
Fri 06:33:00 PM 39.7024 -75.9964 229° Southwest  Level FlightAware Approximate
Fri 06:33:52 PM 39.8267 -75.8553 262° West 316 364 14,300  Level New York Center
Fri 06:34:53 PM 39.8114 -75.9706 260° West 327 376 16,700 2,370 Climbing New York Center
Fri 06:35:51 PM 39.7975 -76.0939 262° West 338 389 19,000 2,168 Climbing New York Center
Fri 06:36:52 PM 39.7711 -76.2161 254° West 351 404 21,000 2,262 Climbing New York Center
Fri 06:37:53 PM 39.7142 -76.3169 234° Southwest 351 404 23,600 2,182 Climbing New York Center
Fri 06:38:53 PM 39.6553 -76.4175 233° Southwest 346 398 25,400 1,785 Climbing New York Center
Fri 06:39:54 PM 39.5939 -76.5178 232° Southwest 357 411 27,200 1,761 Climbing New York Center
Fri 06:40:42 PM 39.5117 -76.5786 210° Southwest 327 376 28,600 1,486 Climbing Washington Center
Fri 06:41:43 PM 39.4194 -76.6339 205° Southwest 340 391 29,900 1,131 Climbing Washington Center
Fri 06:42:44 PM 39.3211 -76.6889 203° Southwest 367 422 30,900 958 Climbing Washington Center
Fri 06:43:42 PM 39.2225 -76.7464 204° Southwest 386 444 31,800 1,008 Climbing Washington Center
Fri 06:44:43 PM 39.1258 -76.8197 210° Southwest 391 450 32,900 984 Climbing Washington Center
Fri 06:45:44 PM 39.0375 -76.9064 217° Southwest 402 463 33,800 1,150 Climbing Washington Center
Fri 06:46:43 PM 38.9511 -76.9983 220° Southwest 402 463 35,200 1,361 Climbing Washington Center
Fri 06:47:43 PM 38.8664 -77.0928 221° Southwest 407 468 36,500 1,300 Climbing Washington Center
Fri 06:48:43 PM 38.7819 -77.1842 220° Southwest 407 468 37,800 1,190 Climbing Washington Center
Fri 06:49:44 PM 38.6972 -77.2756 220° Southwest 407 468 38,900 908 Climbing Washington Center
Fri 06:50:42 PM 38.6172 -77.3453 214° Southwest 407 468 39,600 555 Climbing Washington Center
Fri 06:51:43 PM 38.5119 -77.3958 201° Southwest 397 457 40,000 195 Climbing Washington Center
Fri 06:52:45 PM 38.4069 -77.4517 203° Southwest 402 463 40,000  Level Washington Center
Fri 06:53:42 PM 38.2978 -77.5072 202° Southwest 412 474 40,000  Level Washington Center
Fri 06:54:42 PM 38.1883 -77.5625 202° Southwest 418 481 40,000  Level Washington Center
Fri 06:55:43 PM 38.0789 -77.6178 202° Southwest 418 481 40,000  Level Washington Center
Fri 06:56:44 PM 37.9611 -77.6778 202° Southwest 411 473 40,000  Level Washington Center
Fri 06:57:42 PM 37.8539 -77.7300 201° Southwest 417 480 40,000  Level Washington Center
Fri 06:58:43 PM 37.7422 -77.7872 202° Southwest 422 486 40,000  Level Washington Center
Fri 06:59:44 PM 37.6328 -77.8417 202° Southwest 422 486 40,000  Level Washington Center
Fri 07:00:42 PM 37.5214 -77.8961 201° Southwest 427 491 40,000  Level Washington Center
Fri 07:01:43 PM 37.4097 -77.9503 201° Southwest 433 498 40,000  Level Washington Center
Fri 07:02:44 PM 37.3000 -78.0042 201° Southwest 433 498 40,000  Level Washington Center
Fri 07:03:44 PM 37.1883 -78.0608 202° Southwest 433 498 40,000  Level Washington Center
Fri 07:04:42 PM 37.0767 -78.1144 201° Southwest 433 498 40,000  Level Washington Center
Fri 07:05:43 PM 36.9756 -78.1606 200° South 433 498 40,000  Level Washington Center
Fri 07:06:44 PM 36.8639 -78.2192 203° Southwest 438 504 40,000  Level Washington Center
Fri 07:07:44 PM 36.7519 -78.2722 201° Southwest 438 504 40,000  Level Washington Center
Fri 07:08:42 PM 36.6297 -78.3328 202° Southwest 438 504 40,000  Level Washington Center
Fri 07:09:44 PM 36.5178 -78.3858 201° Southwest 438 504 40,000  Level Washington Center
Fri 07:10:44 PM 36.4039 -78.4411 201° Southwest 438 504 40,000  Level Washington Center
Fri 07:11:42 PM 36.2919 -78.4936 201° Southwest 438 504 40,000  Level Washington Center
Fri 07:12:44 PM 36.1781 -78.5486 201° Southwest 438 504 40,000  Level Washington Center
Fri 07:13:44 PM 36.0661 -78.6011 201° Southwest 438 504 40,000  Level Washington Center
Fri 07:14:45 PM 35.9542 -78.6558 202° Southwest 438 504 40,000  Level Washington Center
Fri 07:15:42 PM 35.8400 -78.7103 201° Southwest 438 504 40,000  Level Washington Center
Fri 07:16:44 PM 35.7281 -78.7647 202° Southwest 438 504 40,000  Level Washington Center
Fri 07:17:44 PM 35.6244 -78.8142 201° Southwest 438 504 40,000  Level Washington Center
Fri 07:18:42 PM 35.5103 -78.8683 201° Southwest 438 504 40,000  Level Washington Center
Fri 07:19:43 PM 35.3983 -78.9172 200° South 438 504 40,000  Level Washington Center
Fri 07:20:43 PM 35.2864 -78.9686 201° Southwest 438 504 40,000  Level Washington Center
Fri 07:21:43 PM 35.1722 -79.0197 200° South 438 504 40,000  Level Washington Center
Fri 07:22:44 PM 35.0603 -79.0708 200° South 438 504 40,000  Level Washington Center
Fri 07:23:42 PM 34.9481 -79.1217 200° South 438 504 40,000  Level Washington Center
Fri 07:25:15 PM 34.7692 -79.2003 200° South 430 495 40,000  Level Jacksonville Center
Fri 07:26:15 PM 34.6539 -79.2558 202° Southwest 430 495 40,000  Level Jacksonville Center
Fri 07:27:15 PM 34.5406 -79.3058 200° South 430 495 40,000  Level Jacksonville Center
Fri 07:28:15 PM 34.4150 -79.3639 201° Southwest 435 501 40,000 -50 Level Jacksonville Center
Fri 07:29:15 PM 34.3244 -79.4078 202° Southwest 435 501 39,900 -50 Descending Jacksonville Center
Fri 07:30:15 PM 34.2028 -79.4578 199° South 440 506 39,900  Level Jacksonville Center
Fri 07:31:15 PM 34.0872 -79.5100 201° Southwest 440 506 39,900  Level Jacksonville Center
Fri 07:32:15 PM 33.9739 -79.5594 200° South 440 506 39,900  Level Jacksonville Center
Fri 07:33:15 PM 33.8586 -79.6139 201° Southwest 445 512 39,900  Level Jacksonville Center
Fri 07:34:15 PM 33.7431 -79.6656 200° South 445 512 39,900  Level Jacksonville Center
Fri 07:35:15 PM 33.6275 -79.7147 200° South 445 512 39,900  Level Jacksonville Center
Fri 07:36:15 PM 33.5097 -79.7689 201° Southwest 445 512 39,900  Level Jacksonville Center
Fri 07:37:15 PM 33.3961 -79.8175 200° South 445 512 39,900  Level Jacksonville Center
Fri 07:38:15 PM 33.2806 -79.8689 200° South 445 512 39,900  Level Jacksonville Center
Fri 07:39:15 PM 33.1606 -79.9175 199° South 445 512 39,900  Level Jacksonville Center
Fri 07:40:15 PM 33.0428 -79.9686 200° South 445 512 39,900  Level Jacksonville Center
Fri 07:41:15 PM 32.9231 -80.0194 200° South 450 518 39,900  Level Jacksonville Center
Fri 07:42:15 PM 32.8142 -80.0944 210° Southwest 450 518 39,900  Level Jacksonville Center
Fri 07:43:15 PM 32.7094 -80.1744 213° Southwest 450 518 39,900  Level Jacksonville Center
Fri 07:44:15 PM 32.6044 -80.2514 212° Southwest 455 524 39,900  Level Jacksonville Center
Fri 07:45:15 PM 32.4975 -80.3286 211° Southwest 455 524 39,900  Level Jacksonville Center
Fri 07:46:15 PM 32.3928 -80.4103 213° Southwest 455 524 39,900  Level Jacksonville Center
Fri 07:47:15 PM 32.2794 -80.4919 211° Southwest 443 510 39,900  Level Jacksonville Center
Fri 07:48:15 PM 32.1681 -80.5611 208° Southwest 447 514 39,900 50 Level Jacksonville Center
Fri 07:49:15 PM 32.0708 -80.6125 204° Southwest 440 506 40,000 -400 Climbing Jacksonville Center
Fri 07:50:15 PM 31.9447 -80.6794 204° Southwest 446 513 39,100 -1,000 Descending Jacksonville Center
Fri 07:51:15 PM 31.8267 -80.7383 203° Southwest 461 531 38,000 -550 Descending Jacksonville Center
Fri 07:52:15 PM 31.7233 -80.7969 206° Southwest 461 531 38,000  Level Jacksonville Center
Fri 07:53:15 PM 31.5969 -80.8608 203° Southwest 449 517 38,000  Level Jacksonville Center
Fri 07:54:15 PM 31.4956 -80.9167 205° Southwest 459 528 38,000  Level Jacksonville Center
Fri 07:55:15 PM 31.3650 -80.9850 204° Southwest 454 522 38,000 -750 Level Jacksonville Center
Fri 07:56:15 PM 31.2636 -81.0431 206° Southwest 460 529 36,500 -2,100 Descending Jacksonville Center
Fri 07:57:15 PM 31.1433 -81.1011 202° Southwest 466 536 33,800 -2,550 Descending Jacksonville Center
Fri 07:58:15 PM 31.0231 -81.1642 204° Southwest 466 536 31,400 -2,800 Descending Jacksonville Center
Fri 07:59:15 PM 30.9069 -81.2244 204° Southwest 471 542 28,200 -3,200 Descending Jacksonville Center
Fri 08:00:15 PM 30.7950 -81.2819 204° Southwest 455 524 25,000 -2,100 Descending Jacksonville Center
Fri 08:01:15 PM 30.6914 -81.3369 205° Southwest 438 504 24,000 -500 Descending Jacksonville Center
Fri 08:02:15 PM 30.5939 -81.3867 204° Southwest 410 472 24,000  Level Jacksonville Center
Fri 08:03:15 PM 30.4919 -81.4364 203° Southwest 400 460 24,000  Level Jacksonville Center
Fri 08:04:15 PM 30.3903 -81.4911 205° Southwest 395 455 24,000  Level Jacksonville Center
Fri 08:05:15 PM 30.2906 -81.5406 203° Southwest 395 455 24,000 -100 Level Jacksonville Center
Fri 08:06:15 PM 30.1806 -81.5997 205° Southwest 400 460 23,800 -800 Descending Jacksonville Center
Fri 08:07:15 PM 30.0808 -81.6492 203° Southwest 395 455 22,400 -1,500 Descending Jacksonville Center
Fri 08:08:15 PM 29.9875 -81.6983 205° Southwest 385 443 20,800 -1,500 Descending Jacksonville Center
Fri 08:09:15 PM 29.8981 -81.7450 204° Southwest 378 435 19,400 -1,450 Descending Jacksonville Center
Fri 08:10:15 PM 29.8108 -81.7892 204° Southwest 359 413 17,900 -1,350 Descending Jacksonville Center
Fri 08:11:15 PM 29.7278 -81.8331 205° Southwest 348 400 16,700 -1,431 Descending Jacksonville Center
Fri 08:12:04 PM 29.6589 -81.8647 202° Southwest 324 373 15,300 -1,600 Descending Jacksonville Center
Fri 08:13:15 PM 29.5614 -81.9161 205° Southwest 332 382 13,500 -1,557 Descending Jacksonville Center
Fri 08:14:15 PM 29.4803 -81.9550 203° Southwest 332 382 11,900 -1,550 Descending Jacksonville Center
Fri 08:15:15 PM 29.4011 -81.9986 206° Southwest 332 382 10,400 -927 Descending Jacksonville Center
Fri 08:16:18 PM 29.3264 -82.0614 216° Southwest 280 322 10,000 -194 Descending Jacksonville Center
Fri 08:17:19 PM 29.2642 -82.1094 214° Southwest 271 312 10,000  Level Jacksonville Center
Fri 08:18:15 PM 29.2100 -82.1597 219° Southwest 285 328 10,000  Level Jacksonville Center
Fri 08:19:15 PM 29.1519 -82.2150 220° Southwest 280 322 10,000  Level Jacksonville Center
Fri 08:20:15 PM 29.0917 -82.2747 221° Southwest 280 322 10,000 -50 Level Jacksonville Center
Fri 08:21:15 PM 29.0314 -82.3322 220° Southwest 280 322 9,900 -537 Descending Jacksonville Center
Fri 08:22:29 PM 28.9544 -82.3847 211° Southwest 261 300 8,800 -1,343 Descending Jacksonville Center
Fri 08:23:29 PM 28.8856 -82.3947 187° South 246 283 6,900 -1,723 Descending Jacksonville Center
Fri 08:25:51 PM 28.7167 -82.4167 187° South 244 281 3,000 -1,129 Descending Tampa TRACON
Fri 08:26:51 PM 28.6500 -82.4333 192° South 234 269 3,100 -350 Climbing Tampa TRACON
Fri 08:27:51 PM 28.6000 -82.4333 180° South 217 250 2,300 -700 Descending Tampa TRACON
Fri 08:28:51 PM 28.5500 -82.4167 164° South 189 217 1,700 -750 Descending Tampa TRACON
Fri 08:29:51 PM 28.5167 -82.4333 204° Southwest 134 154 800 -750 Descending Tampa TRACON
Fri 08:30:27 PM 28.4833 -82.4333 180° South 124 143 500 -500 Descending Tampa TRACON

Login

Don't have an account? Register now (free) for customized features, flight alerts, and more!